Terminal Aerodrome Forecast
Issued by NWS Tuscon, AZ

Home | Current Version | Previous Version | Text Only | Print | Product List | Glossary On
Versions: 1 2 3 4 5 6 7 8 9 10 11 12 13
000
FTUS45 KTWC 261700
TAFTUS
TAF
KTUS 261729Z 2618/2718 07010KT P6SM FEW250
     FM262200 01008KT P6SM SKC
     FM270500 13007KT P6SM SKC
     FM271100 14012KT P6SM SKC=

USA.gov is the U.S. government's official web portal to all federal, state and local government web resources and services.